sensor_id;sensor_type;location;lat;lon;timestamp;temperature;humidity
46730;DHT22;32476;50.002;11.854;2024-02-26T00:01:45;-0.90;99.90
46730;DHT22;32476;50.002;11.854;2024-02-26T00:04:13;-0.90;99.90
46730;DHT22;32476;50.002;11.854;2024-02-26T00:06:39;-0.90;99.90
46730;DHT22;32476;50.002;11.854;2024-02-26T00:09:08;-0.90;99.90
46730;DHT22;32476;50.002;11.854;2024-02-26T00:11:36;-0.90;99.90
46730;DHT22;32476;50.002;11.854;2024-02-26T00:14:03;-0.90;99.90
46730;DHT22;32476;50.002;11.854;2024-02-26T00:16:29;-0.90;99.90
46730;DHT22;32476;50.002;11.854;2024-02-26T00:18:57;-0.90;99.90
46730;DHT22;32476;50.002;11.854;2024-02-26T00:21:23;-0.90;99.90
46730;DHT22;32476;50.002;11.854;2024-02-26T00:23:50;-1.00;99.90
46730;DHT22;32476;50.002;11.854;2024-02-26T00:26:18;-1.00;99.90
46730;DHT22;32476;50.002;11.854;2024-02-26T00:28:44;-1.00;99.90
46730;DHT22;32476;50.002;11.854;2024-02-26T00:31:10;-0.90;99.90
46730;DHT22;32476;50.002;11.854;2024-02-26T00:33:37;-0.90;99.90
46730;DHT22;32476;50.002;11.854;2024-02-26T00:36:04;-0.80;99.90
46730;DHT22;32476;50.002;11.854;2024-02-26T00:38:30;-0.80;99.90
46730;DHT22;32476;50.002;11.854;2024-02-26T00:40:58;-0.90;99.90
46730;DHT22;32476;50.002;11.854;2024-02-26T00:43:24;-0.80;99.90
46730;DHT22;32476;50.002;11.854;2024-02-26T00:45:49;-0.70;99.90
46730;DHT22;32476;50.002;11.854;2024-02-26T00:48:19;-0.80;99.90
46730;DHT22;32476;50.002;11.854;2024-02-26T00:50:45;-0.80;99.90
46730;DHT22;32476;50.002;11.854;2024-02-26T00:53:10;-0.80;99.90
46730;DHT22;32476;50.002;11.854;2024-02-26T00:55:38;-0.70;99.90
46730;DHT22;32476;50.002;11.854;2024-02-26T00:58:04;-0.80;99.90
46730;DHT22;32476;50.002;11.854;2024-02-26T01:00:30;-0.70;99.90
46730;DHT22;32476;50.002;11.854;2024-02-26T01:02:57;-0.70;99.90
46730;DHT22;32476;50.002;11.854;2024-02-26T01:05:25;-0.70;99.90
46730;DHT22;32476;50.002;11.854;2024-02-26T01:07:51;-0.80;99.90
46730;DHT22;32476;50.002;11.854;2024-02-26T01:10:18;-0.80;99.90
46730;DHT22;32476;50.002;11.854;2024-02-26T01:12:44;-0.80;99.90
46730;DHT22;32476;50.002;11.854;2024-02-26T01:15:10;-0.80;99.90
46730;DHT22;32476;50.002;11.854;2024-02-26T01:17:37;-0.70;99.90
46730;DHT22;32476;50.002;11.854;2024-02-26T01:20:05;-0.70;99.90
46730;DHT22;32476;50.002;11.854;2024-02-26T01:22:31;-0.70;99.90
46730;DHT22;32476;50.002;11.854;2024-02-26T01:24:58;-0.70;99.90
46730;DHT22;32476;50.002;11.854;2024-02-26T01:27:24;-0.70;99.90
46730;DHT22;32476;50.002;11.854;2024-02-26T01:29:53;-0.70;99.90
46730;DHT22;32476;50.002;11.854;2024-02-26T01:32:20;-0.90;99.90
46730;DHT22;32476;50.002;11.854;2024-02-26T01:34:46;-0.90;99.90
46730;DHT22;32476;50.002;11.854;2024-02-26T01:37:12;-0.90;99.90
46730;DHT22;32476;50.002;11.854;2024-02-26T01:39:39;-0.90;99.90
46730;DHT22;32476;50.002;11.854;2024-02-26T01:42:07;-0.90;99.90
46730;DHT22;32476;50.002;11.854;2024-02-26T01:44:33;-1.00;99.90
46730;DHT22;32476;50.002;11.854;2024-02-26T01:47:00;-1.00;99.90
46730;DHT22;32476;50.002;11.854;2024-02-26T01:49:27;-1.00;99.90
46730;DHT22;32476;50.002;11.854;2024-02-26T01:51:54;-1.00;99.90
46730;DHT22;32476;50.002;11.854;2024-02-26T01:54:22;-1.00;99.90
46730;DHT22;32476;50.002;11.854;2024-02-26T01:56:49;-1.10;99.90
46730;DHT22;32476;50.002;11.854;2024-02-26T01:59:17;-1.10;99.90
46730;DHT22;32476;50.002;11.854;2024-02-26T02:01:48;-1.10;99.90
46730;DHT22;32476;50.002;11.854;2024-02-26T02:04:19;-1.10;99.90
46730;DHT22;32476;50.002;11.854;2024-02-26T02:06:46;-1.10;99.90
46730;DHT22;32476;50.002;11.854;2024-02-26T02:09:14;-1.20;99.90
46730;DHT22;32476;50.002;11.854;2024-02-26T02:11:40;-1.20;99.90
46730;DHT22;32476;50.002;11.854;2024-02-26T02:14:08;-1.20;99.90
46730;DHT22;32476;50.002;11.854;2024-02-26T02:16:34;-1.20;99.90
46730;DHT22;32476;50.002;11.854;2024-02-26T02:19:00;-1.20;99.90
46730;DHT22;32476;50.002;11.854;2024-02-26T02:21:27;-1.20;99.90
46730;DHT22;32476;50.002;11.854;2024-02-26T02:23:53;-1.20;99.90
46730;DHT22;32476;50.002;11.854;2024-02-26T02:26:20;-1.10;99.90
46730;DHT22;32476;50.002;11.854;2024-02-26T02:28:48;-1.10;99.90
46730;DHT22;32476;50.002;11.854;2024-02-26T02:31:15;-1.20;99.90
46730;DHT22;32476;50.002;11.854;2024-02-26T02:33:41;-1.30;99.90
46730;DHT22;32476;50.002;11.854;2024-02-26T02:36:08;-1.40;99.90
46730;DHT22;32476;50.002;11.854;2024-02-26T02:38:36;-1.30;99.90
46730;DHT22;32476;50.002;11.854;2024-02-26T02:41:03;-1.20;99.90
46730;DHT22;32476;50.002;11.854;2024-02-26T02:43:31;-1.20;99.90
46730;DHT22;32476;50.002;11.854;2024-02-26T02:45:57;-1.30;99.90
46730;DHT22;32476;50.002;11.854;2024-02-26T02:48:23;-1.30;99.90
46730;DHT22;32476;50.002;11.854;2024-02-26T02:50:50;-1.30;99.90
46730;DHT22;32476;50.002;11.854;2024-02-26T02:53:16;-1.30;99.90
46730;DHT22;32476;50.002;11.854;2024-02-26T02:55:42;-1.30;99.90
46730;DHT22;32476;50.002;11.854;2024-02-26T02:58:09;-1.30;99.90
46730;DHT22;32476;50.002;11.854;2024-02-26T03:00:35;-1.30;99.90
46730;DHT22;32476;50.002;11.854;2024-02-26T03:03:02;-1.30;99.90
46730;DHT22;32476;50.002;11.854;2024-02-26T03:05:29;-1.20;99.90
46730;DHT22;32476;50.002;11.854;2024-02-26T03:07:55;-1.20;99.90
46730;DHT22;32476;50.002;11.854;2024-02-26T03:10:21;-1.20;99.90
46730;DHT22;32476;50.002;11.854;2024-02-26T03:12:50;-1.20;99.90
46730;DHT22;32476;50.002;11.854;2024-02-26T03:15:16;-1.20;99.90
46730;DHT22;32476;50.002;11.854;2024-02-26T03:17:42;-1.20;99.90
46730;DHT22;32476;50.002;11.854;2024-02-26T03:20:09;-1.20;99.90
46730;DHT22;32476;50.002;11.854;2024-02-26T03:22:35;-1.20;99.90
46730;DHT22;32476;50.002;11.854;2024-02-26T03:25:01;-1.20;99.90
46730;DHT22;32476;50.002;11.854;2024-02-26T03:27:29;-1.20;99.90
46730;DHT22;32476;50.002;11.854;2024-02-26T03:29:55;-1.20;99.90
46730;DHT22;32476;50.002;11.854;2024-02-26T03:32:21;-1.20;99.90
46730;DHT22;32476;50.002;11.854;2024-02-26T03:34:48;-1.20;99.90
46730;DHT22;32476;50.002;11.854;2024-02-26T03:37:14;-1.10;99.90
46730;DHT22;32476;50.002;11.854;2024-02-26T03:39:41;-1.10;99.90
46730;DHT22;32476;50.002;11.854;2024-02-26T03:42:08;-1.10;99.90
46730;DHT22;32476;50.002;11.854;2024-02-26T03:44:34;-1.10;99.90
46730;DHT22;32476;50.002;11.854;2024-02-26T03:47:00;-1.10;99.90
46730;DHT22;32476;50.002;11.854;2024-02-26T03:49:27;-1.10;99.90
46730;DHT22;32476;50.002;11.854;2024-02-26T03:51:53;-1.00;99.90
46730;DHT22;32476;50.002;11.854;2024-02-26T03:54:19;-1.00;99.90
46730;DHT22;32476;50.002;11.854;2024-02-26T03:56:46;-1.00;99.90
46730;DHT22;32476;50.002;11.854;2024-02-26T03:59:12;-1.00;99.90
46730;DHT22;32476;50.002;11.854;2024-02-26T04:01:38;-1.00;99.90
46730;DHT22;32476;50.002;11.854;2024-02-26T04:04:06;-1.00;99.90
46730;DHT22;32476;50.002;11.854;2024-02-26T04:06:31;-0.90;99.90
46730;DHT22;32476;50.002;11.854;2024-02-26T04:08:58;-0.90;99.90
46730;DHT22;32476;50.002;11.854;2024-02-26T04:11:26;-0.80;99.90
46730;DHT22;32476;50.002;11.854;2024-02-26T04:13:52;-0.90;99.90
46730;DHT22;32476;50.002;11.854;2024-02-26T04:16:18;-0.90;99.90
46730;DHT22;32476;50.002;11.854;2024-02-26T04:18:45;-0.90;99.90
46730;DHT22;32476;50.002;11.854;2024-02-26T04:21:11;-1.00;99.90
46730;DHT22;32476;50.002;11.854;2024-02-26T04:23:37;-0.90;99.90
46730;DHT22;32476;50.002;11.854;2024-02-26T04:26:05;-0.90;99.90
46730;DHT22;32476;50.002;11.854;2024-02-26T04:28:31;-0.90;99.90
46730;DHT22;32476;50.002;11.854;2024-02-26T04:30:56;-0.90;99.90
46730;DHT22;32476;50.002;11.854;2024-02-26T04:33:24;-0.90;99.90
46730;DHT22;32476;50.002;11.854;2024-02-26T04:35:50;-0.90;99.90
46730;DHT22;32476;50.002;11.854;2024-02-26T04:38:16;-0.90;99.90
46730;DHT22;32476;50.002;11.854;2024-02-26T04:40:43;-0.90;99.90
46730;DHT22;32476;50.002;11.854;2024-02-26T04:43:09;-0.80;99.90
46730;DHT22;32476;50.002;11.854;2024-02-26T04:45:35;-0.80;99.90
46730;DHT22;32476;50.002;11.854;2024-02-26T04:48:02;-0.80;99.90
46730;DHT22;32476;50.002;11.854;2024-02-26T04:50:28;-0.80;99.90
46730;DHT22;32476;50.002;11.854;2024-02-26T04:52:55;-0.80;99.90
46730;DHT22;32476;50.002;11.854;2024-02-26T04:55:22;-0.80;99.90
46730;DHT22;32476;50.002;11.854;2024-02-26T04:57:48;-0.80;99.90
46730;DHT22;32476;50.002;11.854;2024-02-26T05:00:14;-0.80;99.90
46730;DHT22;32476;50.002;11.854;2024-02-26T05:02:42;-0.80;99.90
46730;DHT22;32476;50.002;11.854;2024-02-26T05:05:08;-0.80;99.90
46730;DHT22;32476;50.002;11.854;2024-02-26T05:07:40;-0.80;99.90
46730;DHT22;32476;50.002;11.854;2024-02-26T05:10:08;-0.80;99.90
46730;DHT22;32476;50.002;11.854;2024-02-26T05:12:34;-0.80;99.90
46730;DHT22;32476;50.002;11.854;2024-02-26T05:15:02;-0.80;99.90
46730;DHT22;32476;50.002;11.854;2024-02-26T05:17:30;-0.80;99.90
46730;DHT22;32476;50.002;11.854;2024-02-26T05:19:56;-0.90;99.90
46730;DHT22;32476;50.002;11.854;2024-02-26T05:22:22;-0.80;99.90
46730;DHT22;32476;50.002;11.854;2024-02-26T05:24:49;-0.90;99.90
46730;DHT22;32476;50.002;11.854;2024-02-26T05:27:16;-0.90;99.90
46730;DHT22;32476;50.002;11.854;2024-02-26T05:29:42;-0.90;99.90
46730;DHT22;32476;50.002;11.854;2024-02-26T05:32:09;-0.90;99.90
46730;DHT22;32476;50.002;11.854;2024-02-26T05:34:35;-0.90;99.90
46730;DHT22;32476;50.002;11.854;2024-02-26T05:37:01;-0.80;99.90
46730;DHT22;32476;50.002;11.854;2024-02-26T05:39:29;-0.80;99.90
46730;DHT22;32476;50.002;11.854;2024-02-26T05:41:55;-0.80;99.90
46730;DHT22;32476;50.002;11.854;2024-02-26T05:44:22;-0.70;99.90
46730;DHT22;32476;50.002;11.854;2024-02-26T05:46:50;-0.70;99.90
46730;DHT22;32476;50.002;11.854;2024-02-26T05:49:15;-0.60;99.90
46730;DHT22;32476;50.002;11.854;2024-02-26T05:51:42;-0.70;99.90
46730;DHT22;32476;50.002;11.854;2024-02-26T05:54:09;-0.60;99.90
46730;DHT22;32476;50.002;11.854;2024-02-26T05:56:35;-0.60;99.90
46730;DHT22;32476;50.002;11.854;2024-02-26T05:59:01;-0.60;99.90
46730;DHT22;32476;50.002;11.854;2024-02-26T06:01:29;-0.70;99.90
46730;DHT22;32476;50.002;11.854;2024-02-26T06:03:55;-0.70;99.90
46730;DHT22;32476;50.002;11.854;2024-02-26T06:06:21;-0.60;99.90
46730;DHT22;32476;50.002;11.854;2024-02-26T06:08:50;-0.50;99.90
46730;DHT22;32476;50.002;11.854;2024-02-26T06:11:16;-0.30;99.90
46730;DHT22;32476;50.002;11.854;2024-02-26T06:13:42;-0.30;99.90
46730;DHT22;32476;50.002;11.854;2024-02-26T06:16:09;-0.30;99.90
46730;DHT22;32476;50.002;11.854;2024-02-26T06:18:35;-0.30;99.90
46730;DHT22;32476;50.002;11.854;2024-02-26T06:21:01;-0.40;99.90
46730;DHT22;32476;50.002;11.854;2024-02-26T06:23:28;-0.40;99.90
46730;DHT22;32476;50.002;11.854;2024-02-26T06:25:54;-0.40;99.90
46730;DHT22;32476;50.002;11.854;2024-02-26T06:28:20;-0.40;99.90
46730;DHT22;32476;50.002;11.854;2024-02-26T06:30:50;-0.40;99.90
46730;DHT22;32476;50.002;11.854;2024-02-26T06:33:18;-0.30;99.90
46730;DHT22;32476;50.002;11.854;2024-02-26T06:35:44;-0.20;99.90
46730;DHT22;32476;50.002;11.854;2024-02-26T06:38:11;-0.10;99.90
46730;DHT22;32476;50.002;11.854;2024-02-26T06:40:39;0.00;99.90
46730;DHT22;32476;50.002;11.854;2024-02-26T06:43:05;0.00;99.90
46730;DHT22;32476;50.002;11.854;2024-02-26T06:45:33;0.10;99.90
46730;DHT22;32476;50.002;11.854;2024-02-26T06:47:59;0.10;99.90
46730;DHT22;32476;50.002;11.854;2024-02-26T06:50:25;0.20;99.90
46730;DHT22;32476;50.002;11.854;2024-02-26T06:52:52;0.20;99.90
46730;DHT22;32476;50.002;11.854;2024-02-26T06:55:18;0.20;99.90
46730;DHT22;32476;50.002;11.854;2024-02-26T06:57:44;0.30;99.90
46730;DHT22;32476;50.002;11.854;2024-02-26T07:00:12;0.40;99.90
46730;DHT22;32476;50.002;11.854;2024-02-26T07:02:41;0.50;99.90
46730;DHT22;32476;50.002;11.854;2024-02-26T07:05:07;0.70;99.90
46730;DHT22;32476;50.002;11.854;2024-02-26T07:07:35;0.90;99.90
46730;DHT22;32476;50.002;11.854;2024-02-26T07:10:01;1.00;99.90
46730;DHT22;32476;50.002;11.854;2024-02-26T07:12:32;1.10;99.90
46730;DHT22;32476;50.002;11.854;2024-02-26T07:14:59;1.20;99.90
46730;DHT22;32476;50.002;11.854;2024-02-26T07:17:26;1.30;99.90
46730;DHT22;32476;50.002;11.854;2024-02-26T07:19:52;1.40;99.90
46730;DHT22;32476;50.002;11.854;2024-02-26T07:22:19;1.40;99.90
46730;DHT22;32476;50.002;11.854;2024-02-26T07:24:45;1.50;99.90
46730;DHT22;32476;50.002;11.854;2024-02-26T07:27:12;1.60;99.90
46730;DHT22;32476;50.002;11.854;2024-02-26T07:29:39;1.60;99.90
46730;DHT22;32476;50.002;11.854;2024-02-26T07:32:06;1.60;99.90
46730;DHT22;32476;50.002;11.854;2024-02-26T07:34:31;1.70;99.90
46730;DHT22;32476;50.002;11.854;2024-02-26T07:36:59;1.80;99.90
46730;DHT22;32476;50.002;11.854;2024-02-26T07:39:25;1.90;99.90
46730;DHT22;32476;50.002;11.854;2024-02-26T07:41:51;2.00;99.90
46730;DHT22;32476;50.002;11.854;2024-02-26T07:44:19;2.10;99.90
46730;DHT22;32476;50.002;11.854;2024-02-26T07:46:45;2.10;99.90
46730;DHT22;32476;50.002;11.854;2024-02-26T07:49:12;2.30;99.90
46730;DHT22;32476;50.002;11.854;2024-02-26T07:51:39;2.30;99.90
46730;DHT22;32476;50.002;11.854;2024-02-26T07:54:05;2.50;99.90
46730;DHT22;32476;50.002;11.854;2024-02-26T07:56:31;2.50;99.90
46730;DHT22;32476;50.002;11.854;2024-02-26T07:58:59;2.60;99.90
46730;DHT22;32476;50.002;11.854;2024-02-26T08:01:25;2.60;99.90
46730;DHT22;32476;50.002;11.854;2024-02-26T08:03:53;2.70;99.90
46730;DHT22;32476;50.002;11.854;2024-02-26T08:06:21;2.90;99.90
46730;DHT22;32476;50.002;11.854;2024-02-26T08:08:47;3.10;99.90
46730;DHT22;32476;50.002;11.854;2024-02-26T08:11:14;3.20;99.90
46730;DHT22;32476;50.002;11.854;2024-02-26T08:13:43;3.30;99.90
46730;DHT22;32476;50.002;11.854;2024-02-26T08:16:08;3.50;99.90
46730;DHT22;32476;50.002;11.854;2024-02-26T08:18:34;3.50;99.90
46730;DHT22;32476;50.002;11.854;2024-02-26T08:21:02;3.60;99.90
46730;DHT22;32476;50.002;11.854;2024-02-26T08:23:28;3.60;99.90
46730;DHT22;32476;50.002;11.854;2024-02-26T08:25:54;3.80;99.90
46730;DHT22;32476;50.002;11.854;2024-02-26T08:28:22;3.80;99.90
46730;DHT22;32476;50.002;11.854;2024-02-26T08:30:48;3.80;99.90
46730;DHT22;32476;50.002;11.854;2024-02-26T08:33:14;3.70;99.90
46730;DHT22;32476;50.002;11.854;2024-02-26T08:35:41;3.80;99.90
46730;DHT22;32476;50.002;11.854;2024-02-26T08:38:07;3.90;99.90
46730;DHT22;32476;50.002;11.854;2024-02-26T08:40:33;3.90;99.90
46730;DHT22;32476;50.002;11.854;2024-02-26T08:43:00;4.00;99.90
46730;DHT22;32476;50.002;11.854;2024-02-26T08:45:26;4.10;99.90
46730;DHT22;32476;50.002;11.854;2024-02-26T08:47:52;4.20;99.90
46730;DHT22;32476;50.002;11.854;2024-02-26T08:50:20;4.20;99.90
46730;DHT22;32476;50.002;11.854;2024-02-26T08:52:46;4.20;99.90
46730;DHT22;32476;50.002;11.854;2024-02-26T08:55:16;4.20;99.90
46730;DHT22;32476;50.002;11.854;2024-02-26T08:57:44;4.20;99.90
46730;DHT22;32476;50.002;11.854;2024-02-26T09:00:10;4.20;99.90
46730;DHT22;32476;50.002;11.854;2024-02-26T09:02:37;4.30;99.90
46730;DHT22;32476;50.002;11.854;2024-02-26T09:05:06;4.50;99.90
46730;DHT22;32476;50.002;11.854;2024-02-26T09:07:32;4.60;99.90
46730;DHT22;32476;50.002;11.854;2024-02-26T09:09:59;4.90;99.90
46730;DHT22;32476;50.002;11.854;2024-02-26T09:12:26;5.00;99.90
46730;DHT22;32476;50.002;11.854;2024-02-26T09:14:52;5.10;99.90
46730;DHT22;32476;50.002;11.854;2024-02-26T09:17:18;5.10;99.90
46730;DHT22;32476;50.002;11.854;2024-02-26T09:19:46;5.20;99.90
46730;DHT22;32476;50.002;11.854;2024-02-26T09:22:12;5.20;99.90
46730;DHT22;32476;50.002;11.854;2024-02-26T09:24:38;5.20;99.90
46730;DHT22;32476;50.002;11.854;2024-02-26T09:27:05;5.10;99.90
46730;DHT22;32476;50.002;11.854;2024-02-26T09:29:31;5.20;99.90
46730;DHT22;32476;50.002;11.854;2024-02-26T09:31:58;5.30;99.90
46730;DHT22;32476;50.002;11.854;2024-02-26T09:34:25;5.40;99.90
46730;DHT22;32476;50.002;11.854;2024-02-26T09:36:52;5.50;99.90
46730;DHT22;32476;50.002;11.854;2024-02-26T09:39:18;5.60;99.90
46730;DHT22;32476;50.002;11.854;2024-02-26T09:41:49;5.70;99.90
46730;DHT22;32476;50.002;11.854;2024-02-26T09:44:20;5.70;99.90
46730;DHT22;32476;50.002;11.854;2024-02-26T09:46:51;5.70;99.90
46730;DHT22;32476;50.002;11.854;2024-02-26T09:49:21;5.90;99.90
46730;DHT22;32476;50.002;11.854;2024-02-26T09:51:49;5.60;99.90
46730;DHT22;32476;50.002;11.854;2024-02-26T09:54:17;5.70;99.90
46730;DHT22;32476;50.002;11.854;2024-02-26T09:56:46;5.90;99.90
46730;DHT22;32476;50.002;11.854;2024-02-26T09:59:15;6.00;99.90
46730;DHT22;32476;50.002;11.854;2024-02-26T10:01:44;5.90;99.90
46730;DHT22;32476;50.002;11.854;2024-02-26T10:04:12;5.90;99.90
46730;DHT22;32476;50.002;11.854;2024-02-26T10:06:39;5.80;99.90
46730;DHT22;32476;50.002;11.854;2024-02-26T10:09:08;5.90;99.90
46730;DHT22;32476;50.002;11.854;2024-02-26T10:11:35;5.90;99.90
46730;DHT22;32476;50.002;11.854;2024-02-26T10:14:03;6.00;99.90
46730;DHT22;32476;50.002;11.854;2024-02-26T10:16:32;6.00;99.90
46730;DHT22;32476;50.002;11.854;2024-02-26T10:18:59;6.10;99.90
46730;DHT22;32476;50.002;11.854;2024-02-26T10:21:25;6.30;99.90
46730;DHT22;32476;50.002;11.854;2024-02-26T10:23:53;6.40;99.90
46730;DHT22;32476;50.002;11.854;2024-02-26T10:26:20;6.50;99.90
46730;DHT22;32476;50.002;11.854;2024-02-26T10:28:46;6.30;99.90
46730;DHT22;32476;50.002;11.854;2024-02-26T10:31:14;6.40;99.90
46730;DHT22;32476;50.002;11.854;2024-02-26T10:33:42;6.40;99.90
46730;DHT22;32476;50.002;11.854;2024-02-26T10:36:09;6.40;99.90
46730;DHT22;32476;50.002;11.854;2024-02-26T10:38:37;6.50;99.90
46730;DHT22;32476;50.002;11.854;2024-02-26T10:41:07;6.70;99.90
46730;DHT22;32476;50.002;11.854;2024-02-26T10:43:34;6.80;99.90
46730;DHT22;32476;50.002;11.854;2024-02-26T10:46:02;7.00;99.90
46730;DHT22;32476;50.002;11.854;2024-02-26T10:48:28;7.00;99.90
46730;DHT22;32476;50.002;11.854;2024-02-26T10:50:54;7.00;99.90
46730;DHT22;32476;50.002;11.854;2024-02-26T10:53:23;7.10;99.90
46730;DHT22;32476;50.002;11.854;2024-02-26T10:55:58;7.10;99.90
46730;DHT22;32476;50.002;11.854;2024-02-26T10:58:29;7.20;99.90
46730;DHT22;32476;50.002;11.854;2024-02-26T11:00:57;7.40;99.90
46730;DHT22;32476;50.002;11.854;2024-02-26T11:03:24;7.40;99.90
46730;DHT22;32476;50.002;11.854;2024-02-26T11:05:52;7.60;99.90
46730;DHT22;32476;50.002;11.854;2024-02-26T11:08:19;7.80;99.90
46730;DHT22;32476;50.002;11.854;2024-02-26T11:10:55;8.00;99.90
46730;DHT22;32476;50.002;11.854;2024-02-26T11:13:27;7.80;99.90
46730;DHT22;32476;50.002;11.854;2024-02-26T11:15:56;7.80;99.90
46730;DHT22;32476;50.002;11.854;2024-02-26T11:18:26;7.80;99.90
46730;DHT22;32476;50.002;11.854;2024-02-26T11:20:54;7.50;99.90
46730;DHT22;32476;50.002;11.854;2024-02-26T11:23:24;7.50;99.90
46730;DHT22;32476;50.002;11.854;2024-02-26T11:25:52;7.40;99.90
46730;DHT22;32476;50.002;11.854;2024-02-26T11:28:22;7.60;99.90
46730;DHT22;32476;50.002;11.854;2024-02-26T11:30:52;7.60;99.90
46730;DHT22;32476;50.002;11.854;2024-02-26T11:33:21;7.80;99.90
46730;DHT22;32476;50.002;11.854;2024-02-26T11:35:48;7.60;99.90
46730;DHT22;32476;50.002;11.854;2024-02-26T11:38:24;7.60;99.90
46730;DHT22;32476;50.002;11.854;2024-02-26T11:40:53;7.80;99.90
46730;DHT22;32476;50.002;11.854;2024-02-26T11:43:53;8.00;99.90
46730;DHT22;32476;50.002;11.854;2024-02-26T11:46:27;8.00;99.90
46730;DHT22;32476;50.002;11.854;2024-02-26T11:49:03;8.10;99.90
46730;DHT22;32476;50.002;11.854;2024-02-26T11:51:53;8.00;99.90
46730;DHT22;32476;50.002;11.854;2024-02-26T11:57:38;8.40;99.90
46730;DHT22;32476;50.002;11.854;2024-02-26T12:05:16;8.00;99.90
46730;DHT22;32476;50.002;11.854;2024-02-26T12:07:45;7.90;99.90
46730;DHT22;32476;50.002;11.854;2024-02-26T12:10:37;7.90;99.90
46730;DHT22;32476;50.002;11.854;2024-02-26T12:15:38;8.10;99.90
46730;DHT22;32476;50.002;11.854;2024-02-26T12:18:10;7.90;99.90
46730;DHT22;32476;50.002;11.854;2024-02-26T12:20:43;8.00;99.90
46730;DHT22;32476;50.002;11.854;2024-02-26T12:23:16;7.80;99.90
46730;DHT22;32476;50.002;11.854;2024-02-26T12:25:46;7.90;99.90
46730;DHT22;32476;50.002;11.854;2024-02-26T12:28:14;8.10;99.90
46730;DHT22;32476;50.002;11.854;2024-02-26T12:30:40;8.20;99.90
46730;DHT22;32476;50.002;11.854;2024-02-26T12:33:08;8.10;99.90
46730;DHT22;32476;50.002;11.854;2024-02-26T12:35:35;8.30;99.90
46730;DHT22;32476;50.002;11.854;2024-02-26T12:38:01;8.30;99.90
46730;DHT22;32476;50.002;11.854;2024-02-26T12:40:31;8.10;99.90
46730;DHT22;32476;50.002;11.854;2024-02-26T12:42:57;8.20;99.90
46730;DHT22;32476;50.002;11.854;2024-02-26T12:45:25;8.30;99.90
46730;DHT22;32476;50.002;11.854;2024-02-26T12:47:53;8.50;99.90
46730;DHT22;32476;50.002;11.854;2024-02-26T12:50:19;8.40;99.90
46730;DHT22;32476;50.002;11.854;2024-02-26T12:52:47;8.60;99.90
46730;DHT22;32476;50.002;11.854;2024-02-26T12:55:17;8.50;99.90
46730;DHT22;32476;50.002;11.854;2024-02-26T12:57:45;8.40;99.90
46730;DHT22;32476;50.002;11.854;2024-02-26T13:00:14;8.20;99.90
46730;DHT22;32476;50.002;11.854;2024-02-26T13:02:44;8.10;99.90
46730;DHT22;32476;50.002;11.854;2024-02-26T13:05:13;8.20;99.90
46730;DHT22;32476;50.002;11.854;2024-02-26T13:07:43;8.10;99.90
46730;DHT22;32476;50.002;11.854;2024-02-26T13:10:12;8.10;99.90
46730;DHT22;32476;50.002;11.854;2024-02-26T13:12:46;8.20;99.90
46730;DHT22;32476;50.002;11.854;2024-02-26T13:15:16;7.90;99.90
46730;DHT22;32476;50.002;11.854;2024-02-26T13:17:47;7.90;99.90
46730;DHT22;32476;50.002;11.854;2024-02-26T13:20:45;8.10;99.90
46730;DHT22;32476;50.002;11.854;2024-02-26T13:23:12;8.30;99.90
46730;DHT22;32476;50.002;11.854;2024-02-26T13:25:40;8.30;99.90
46730;DHT22;32476;50.002;11.854;2024-02-26T13:28:17;7.90;99.90
46730;DHT22;32476;50.002;11.854;2024-02-26T13:30:52;7.90;99.90
46730;DHT22;32476;50.002;11.854;2024-02-26T13:33:19;8.10;99.90
46730;DHT22;32476;50.002;11.854;2024-02-26T13:35:45;8.10;99.90
46730;DHT22;32476;50.002;11.854;2024-02-26T13:38:13;7.80;99.90
46730;DHT22;32476;50.002;11.854;2024-02-26T13:40:40;8.00;99.90
46730;DHT22;32476;50.002;11.854;2024-02-26T13:43:06;8.10;99.90
46730;DHT22;32476;50.002;11.854;2024-02-26T13:45:34;8.20;99.90
46730;DHT22;32476;50.002;11.854;2024-02-26T13:48:03;8.20;99.90
46730;DHT22;32476;50.002;11.854;2024-02-26T13:50:29;8.00;99.90
46730;DHT22;32476;50.002;11.854;2024-02-26T13:52:58;7.80;99.90
46730;DHT22;32476;50.002;11.854;2024-02-26T13:55:31;7.90;99.90
46730;DHT22;32476;50.002;11.854;2024-02-26T13:57:59;7.90;99.90
46730;DHT22;32476;50.002;11.854;2024-02-26T14:00:32;7.90;99.90
46730;DHT22;32476;50.002;11.854;2024-02-26T14:03:01;8.00;99.90
46730;DHT22;32476;50.002;11.854;2024-02-26T14:05:27;7.90;99.90
46730;DHT22;32476;50.002;11.854;2024-02-26T14:07:53;7.80;99.90
46730;DHT22;32476;50.002;11.854;2024-02-26T14:10:21;7.70;99.90
46730;DHT22;32476;50.002;11.854;2024-02-26T14:12:47;7.70;99.90
46730;DHT22;32476;50.002;11.854;2024-02-26T14:15:13;7.80;99.90
46730;DHT22;32476;50.002;11.854;2024-02-26T14:17:41;8.10;99.90
46730;DHT22;32476;50.002;11.854;2024-02-26T14:20:08;8.50;99.90
46730;DHT22;32476;50.002;11.854;2024-02-26T14:22:35;8.50;99.90
46730;DHT22;32476;50.002;11.854;2024-02-26T14:25:03;8.40;99.90
46730;DHT22;32476;50.002;11.854;2024-02-26T14:27:29;8.30;99.90
46730;DHT22;32476;50.002;11.854;2024-02-26T14:29:55;8.20;99.90
46730;DHT22;32476;50.002;11.854;2024-02-26T14:32:22;8.10;99.90
46730;DHT22;32476;50.002;11.854;2024-02-26T14:34:48;8.10;99.90
46730;DHT22;32476;50.002;11.854;2024-02-26T14:37:14;8.00;99.90
46730;DHT22;32476;50.002;11.854;2024-02-26T14:39:41;8.00;99.90
46730;DHT22;32476;50.002;11.854;2024-02-26T14:42:07;8.00;99.90
46730;DHT22;32476;50.002;11.854;2024-02-26T14:44:33;8.00;99.90
46730;DHT22;32476;50.002;11.854;2024-02-26T14:47:01;8.00;99.90
46730;DHT22;32476;50.002;11.854;2024-02-26T14:49:27;7.90;99.90
46730;DHT22;32476;50.002;11.854;2024-02-26T14:51:55;7.90;99.90
46730;DHT22;32476;50.002;11.854;2024-02-26T14:54:22;7.90;99.90
46730;DHT22;32476;50.002;11.854;2024-02-26T14:56:48;7.90;99.90
46730;DHT22;32476;50.002;11.854;2024-02-26T14:59:14;8.00;99.90
46730;DHT22;32476;50.002;11.854;2024-02-26T15:01:42;7.90;99.90
46730;DHT22;32476;50.002;11.854;2024-02-26T15:04:08;7.90;99.90
46730;DHT22;32476;50.002;11.854;2024-02-26T15:06:34;7.90;99.90
46730;DHT22;32476;50.002;11.854;2024-02-26T15:09:02;7.60;99.90
46730;DHT22;32476;50.002;11.854;2024-02-26T15:11:29;7.60;99.90
46730;DHT22;32476;50.002;11.854;2024-02-26T15:13:55;7.60;99.90
46730;DHT22;32476;50.002;11.854;2024-02-26T15:16:22;7.60;99.90
46730;DHT22;32476;50.002;11.854;2024-02-26T15:18:48;7.60;99.90
46730;DHT22;32476;50.002;11.854;2024-02-26T15:21:14;7.60;99.90
46730;DHT22;32476;50.002;11.854;2024-02-26T15:23:45;7.60;99.90
46730;DHT22;32476;50.002;11.854;2024-02-26T15:26:11;7.50;99.90
46730;DHT22;32476;50.002;11.854;2024-02-26T15:28:37;7.50;99.90
46730;DHT22;32476;50.002;11.854;2024-02-26T15:31:04;7.60;99.90
46730;DHT22;32476;50.002;11.854;2024-02-26T15:33:31;7.50;99.90
46730;DHT22;32476;50.002;11.854;2024-02-26T15:35:57;7.40;99.90
46730;DHT22;32476;50.002;11.854;2024-02-26T15:38:24;7.40;99.90